Time;durP1;ratioP1;P1;durP2;ratioP2;P2;SDS_P1;SDS_P2;PMS_P1;PMS_P2;Temp;Humidity;BMP_temperature;BMP_pressure;BME280_temperature;BME280_humidity;BME280_pressure;Samples;Min_cycle;Max_cycle;Signal;HPM_P1;HPM_P2
2023/06/16 00:02:01;;;;;;;3.65;2.30;;;;;;;25.29;37.22;101785.13;5033494;28;21207;-71
2023/06/16 00:04:27;;;;;;;5.20;2.88;;;;;;;25.30;37.19;101800.16;5033336;28;20433;-66
2023/06/16 00:06:53;;;;;;;3.63;2.10;;;;;;;25.27;37.03;101790.56;5033678;28;20033;-70
2023/06/16 00:09:21;;;;;;;5.28;2.60;;;;;;;25.26;36.72;101793.38;5032965;28;20469;-70
2023/06/16 00:11:47;;;;;;;5.07;2.55;;;;;;;25.20;36.94;101773.50;5032650;28;20476;-71
2023/06/16 00:14:12;;;;;;;5.35;2.85;;;;;;;25.26;36.72;101780.91;5032880;28;20073;-69
2023/06/16 00:16:38;;;;;;;5.55;2.90;;;;;;;25.26;36.76;101785.38;5032513;28;20478;-70
2023/06/16 00:19:03;;;;;;;6.15;2.83;;;;;;;25.25;36.60;101778.38;5031781;28;20044;-68
2023/06/16 00:21:35;;;;;;;6.25;3.25;;;;;;;25.23;36.72;101775.88;5032007;28;20069;-69
2023/06/16 00:24:01;;;;;;;4.55;2.95;;;;;;;25.24;37.02;101782.88;5033034;28;20089;-69
2023/06/16 00:26:27;;;;;;;4.90;2.80;;;;;;;25.24;36.63;101782.88;5032400;28;20215;-67
2023/06/16 00:28:52;;;;;;;5.55;2.88;;;;;;;25.25;36.79;101789.88;5032464;28;20112;-68
2023/06/16 00:31:17;;;;;;;6.15;2.92;;;;;;;25.22;36.92;101784.03;5032294;28;20480;-68
2023/06/16 00:33:43;;;;;;;5.38;3.00;;;;;;;25.21;36.51;101783.16;5032397;28;20390;-68
2023/06/16 00:36:08;;;;;;;4.40;2.90;;;;;;;25.18;36.68;101788.78;5031024;28;20357;-69
2023/06/16 00:38:33;;;;;;;5.37;3.03;;;;;;;25.19;36.51;101779.81;5032313;28;20046;-69
2023/06/16 00:41:00;;;;;;;4.50;2.73;;;;;;;25.20;36.65;101788.66;5032555;28;20297;-68
2023/06/16 00:43:25;;;;;;;5.82;3.10;;;;;;;25.20;36.90;101788.66;5030676;28;20717;-68
2023/06/16 00:45:51;;;;;;;5.60;3.10;;;;;;;25.17;36.88;101779.97;5032153;28;20070;-70
2023/06/16 00:48:17;;;;;;;4.63;2.92;;;;;;;25.20;36.98;101778.84;5032123;28;20763;-69
2023/06/16 00:50:43;;;;;;;5.00;3.10;;;;;;;25.19;36.95;101785.16;5032360;28;20025;-69
2023/06/16 00:53:09;;;;;;;5.00;2.90;;;;;;;25.18;36.51;101783.47;5032570;28;20036;-70
2023/06/16 00:55:34;;;;;;;4.88;2.88;;;;;;;25.17;36.61;101781.81;5031750;28;20082;-69
2023/06/16 00:58:00;;;;;;;6.45;2.97;;;;;;;25.16;36.65;101772.94;5031976;28;20044;-69
2023/06/16 01:00:25;;;;;;;5.63;3.00;;;;;;;25.16;36.57;101775.59;5031553;28;20041;-68
2023/06/16 01:02:51;;;;;;;5.32;2.63;;;;;;;25.16;36.65;101780.94;5031844;28;20090;-71
2023/06/16 01:05:20;;;;;;;6.88;3.10;;;;;;;25.15;36.37;101770.41;5031956;28;20034;-68
2023/06/16 01:08:21;;;;;;;6.47;3.20;;;;;;;25.15;36.62;101770.41;5031700;28;20029;-68
2023/06/16 01:11:10;;;;;;;5.18;3.28;;;;;;;25.12;36.92;101757.41;4978887;28;20038;-68
2023/06/16 01:13:44;;;;;;;5.97;3.20;;;;;;;25.13;36.50;101765.25;5029588;28;20048;-68
2023/06/16 01:16:10;;;;;;;6.00;3.10;;;;;;;25.13;36.85;101761.72;5031367;28;20041;-68
2023/06/16 01:18:40;;;;;;;4.70;2.97;;;;;;;25.12;36.50;101760.06;5031417;28;20559;-68
2023/06/16 01:21:16;;;;;;;5.65;3.30;;;;;;;25.09;36.30;101758.53;5031044;28;20179;-68
2023/06/16 01:24:01;;;;;;;4.95;3.03;;;;;;;25.09;36.43;101760.38;5031222;28;21178;-68
2023/06/16 01:26:29;;;;;;;6.30;3.53;;;;;;;25.12;36.53;101763.56;5031497;28;20101;-69
2023/06/16 01:28:55;;;;;;;6.30;2.97;;;;;;;25.09;36.71;101757.72;5031194;28;20041;-68
2023/06/16 01:31:22;;;;;;;5.93;3.50;;;;;;;25.07;36.29;101759.66;5031197;28;20037;-70
2023/06/16 01:33:48;;;;;;;6.60;3.05;;;;;;;25.09;36.35;101769.19;5031720;28;20107;-69
2023/06/16 01:36:15;;;;;;;6.55;2.92;;;;;;;25.06;36.57;101755.34;5031454;28;20116;-67
2023/06/16 01:38:43;;;;;;;6.55;3.50;;;;;;;25.08;36.75;101764.84;5031290;28;20032;-70
2023/06/16 01:41:09;;;;;;;5.32;3.00;;;;;;;25.07;36.38;101763.19;5031544;28;20033;-68
2023/06/16 01:43:35;;;;;;;5.35;3.22;;;;;;;25.06;36.60;101764.16;5031300;28;20134;-70
2023/06/16 01:46:01;;;;;;;4.38;2.90;;;;;;;25.04;36.63;101755.47;5030886;28;20502;-68
2023/06/16 01:48:27;;;;;;;5.50;3.60;;;;;;;25.06;36.26;101763.34;5030065;28;20040;-68
2023/06/16 01:50:53;;;;;;;5.45;3.30;;;;;;;25.04;36.67;101760.81;5031283;28;20037;-69
2023/06/16 01:53:18;;;;;;;6.55;3.33;;;;;;;25.05;36.56;101753.66;5030938;28;20048;-68
2023/06/16 01:55:48;;;;;;;5.93;3.20;;;;;;;25.02;36.20;101759.28;5030835;28;20386;-68
2023/06/16 01:58:15;;;;;;;8.18;3.42;;;;;;;25.03;36.30;101755.63;5030737;28;20417;-68
2023/06/16 02:00:46;;;;;;;5.28;3.50;;;;;;;25.02;36.11;101757.44;5031433;28;20370;-68
2023/06/16 02:03:22;;;;;;;6.22;3.30;;;;;;;25.00;36.62;101754.09;5030801;28;20043;-68
2023/06/16 02:05:50;;;;;;;7.70;3.38;;;;;;;25.02;36.25;101759.28;5030456;28;20053;-69
2023/06/16 02:08:21;;;;;;;5.72;3.20;;;;;;;24.95;36.59;101746.53;5030911;28;20476;-69
2023/06/16 02:10:47;;;;;;;5.50;3.30;;;;;;;24.99;36.77;101755.94;5031485;28;20037;-71
2023/06/16 02:13:12;;;;;;;7.95;3.60;;;;;;;25.01;36.59;101762.91;5030742;28;20051;-71
2023/06/16 02:15:38;;;;;;;8.32;3.55;;;;;;;24.99;36.16;101765.72;5030637;28;20477;-69
2023/06/16 02:18:03;;;;;;;5.80;3.43;;;;;;;24.98;36.15;101762.22;5030031;28;20404;-70
2023/06/16 02:20:28;;;;;;;5.22;3.53;;;;;;;24.97;36.54;101759.72;5030099;28;20342;-68
2023/06/16 02:22:54;;;;;;;5.80;3.25;;;;;;;24.97;36.23;101763.22;5032242;28;20034;-68
2023/06/16 02:25:20;;;;;;;6.25;3.50;;;;;;;24.97;36.21;101763.22;5033590;28;20037;-68
2023/06/16 02:27:45;;;;;;;6.75;3.15;;;;;;;24.98;36.35;101769.41;5033371;28;20079;-68
2023/06/16 02:30:12;;;;;;;6.03;3.40;;;;;;;24.95;36.52;101762.53;5033742;28;20469;-68
2023/06/16 02:32:37;;;;;;;5.28;3.53;;;;;;;24.96;36.33;101768.72;5033766;28;20065;-67
2023/06/16 02:35:06;;;;;;;5.90;3.13;;;;;;;24.94;36.32;101766.19;5033517;28;20052;-69
2023/06/16 02:37:35;;;;;;;5.32;3.50;;;;;;;24.93;36.15;101763.69;5033198;28;20108;-70
2023/06/16 02:40:01;;;;;;;6.00;3.38;;;;;;;24.94;36.55;101766.19;5032863;28;20435;-68
2023/06/16 02:42:26;;;;;;;6.32;3.60;;;;;;;24.94;36.47;101766.19;5033355;28;20156;-69
2023/06/16 02:44:52;;;;;;;5.43;3.20;;;;;;;24.92;36.38;101768.16;5032504;28;20025;-69
2023/06/16 02:47:17;;;;;;;6.23;3.53;;;;;;;24.93;36.23;101766.34;5033475;28;20065;-69
2023/06/16 02:49:42;;;;;;;5.33;3.43;;;;;;;24.91;36.04;101760.31;5033885;28;20036;-71
2023/06/16 02:52:10;;;;;;;6.00;3.70;;;;;;;24.92;36.41;101765.50;5033173;28;20041;-68
2023/06/16 02:54:35;;;;;;;6.10;3.50;;;;;;;24.90;36.38;101759.47;5032579;28;20038;-69
2023/06/16 02:57:01;;;;;;;5.40;3.20;;;;;;;24.90;36.31;101761.31;5033268;28;20092;-67
2023/06/16 02:59:26;;;;;;;5.63;3.20;;;;;;;24.87;36.56;101749.09;5032979;28;20040;-68
2023/06/16 03:01:51;;;;;;;7.27;3.60;;;;;;;24.88;36.18;101761.47;5032764;28;20336;-69
2023/06/16 03:04:17;;;;;;;6.90;3.60;;;;;;;24.88;36.35;101755.25;5032934;28;20277;-69
2023/06/16 03:06:44;;;;;;;7.05;3.45;;;;;;;24.87;36.54;101757.09;5032555;28;20069;-67
2023/06/16 03:09:11;;;;;;;6.50;3.35;;;;;;;24.85;36.14;101760.88;5032651;28;20048;-68
2023/06/16 03:11:36;;;;;;;5.30;3.50;;;;;;;24.85;36.24;101766.22;5033271;28;20046;-68
2023/06/16 03:14:02;;;;;;;5.53;3.60;;;;;;;24.83;36.03;101760.22;5032513;28;20033;-69
2023/06/16 03:16:27;;;;;;;5.77;3.57;;;;;;;24.83;36.60;101760.22;4995949;28;1050252;-69
2023/06/16 03:18:54;;;;;;;6.32;3.30;;;;;;;24.83;36.47;101761.03;5034103;28;20382;-68
2023/06/16 03:21:19;;;;;;;5.53;3.45;;;;;;;24.84;36.50;101764.56;5033586;28;20549;-69
2023/06/16 03:23:45;;;;;;;5.75;3.95;;;;;;;24.82;36.40;101764.72;5033921;28;20140;-70
2023/06/16 03:26:10;;;;;;;5.23;3.37;;;;;;;24.80;36.27;101762.19;5032221;28;20485;-68
2023/06/16 03:28:36;;;;;;;5.88;3.17;;;;;;;24.80;36.13;101766.66;5033537;28;20266;-68
2023/06/16 03:31:01;;;;;;;7.97;3.47;;;;;;;24.81;36.21;101773.69;5033586;28;20043;-67
2023/06/16 03:33:27;;;;;;;5.43;3.10;;;;;;;24.80;36.61;101770.19;5033676;28;20746;-69
2023/06/16 03:35:52;;;;;;;5.88;3.45;;;;;;;24.76;36.66;101762.63;5033450;28;20083;-67
2023/06/16 03:38:18;;;;;;;5.88;4.00;;;;;;;24.78;36.46;101771.31;5032500;28;20112;-68
2023/06/16 03:40:43;;;;;;;6.10;3.80;;;;;;;24.75;36.22;101767.13;5033321;28;20424;-68
2023/06/16 03:43:08;;;;;;;5.90;3.70;;;;;;;24.76;36.26;101768.78;5032083;28;20044;-68
2023/06/16 03:45:34;;;;;;;5.32;3.60;;;;;;;24.76;36.44;101774.13;5032950;28;20290;-67
2023/06/16 03:47:59;;;;;;;5.93;3.08;;;;;;;24.74;36.68;101776.09;5033507;28;20029;-68
2023/06/16 03:50:25;;;;;;;6.68;3.13;;;;;;;24.75;36.44;101775.13;5033602;28;20025;-67
2023/06/16 03:52:51;;;;;;;5.60;3.50;;;;;;;24.73;36.68;101768.25;5033232;28;20504;-68
2023/06/16 03:55:16;;;;;;;5.57;3.30;;;;;;;24.73;36.42;101769.06;5033318;28;20033;-68
2023/06/16 03:57:41;;;;;;;5.30;3.10;;;;;;;24.72;36.06;101763.88;5033307;28;20101;-68
2023/06/16 04:00:08;;;;;;;7.00;3.33;;;;;;;24.72;36.52;101775.41;5033536;28;20270;-70
2023/06/16 04:02:34;;;;;;;5.13;3.28;;;;;;;24.72;36.59;101774.56;5033143;28;20270;-68
2023/06/16 04:05:00;;;;;;;7.13;3.67;;;;;;;24.70;36.14;101769.38;5033024;28;20504;-68
2023/06/16 04:07:26;;;;;;;5.90;3.40;;;;;;;24.71;36.37;101770.22;5032667;28;20033;-67
2023/06/16 04:09:51;;;;;;;5.30;3.30;;;;;;;24.73;36.07;101781.56;5033066;28;20248;-68
2023/06/16 04:12:17;;;;;;;5.32;3.47;;;;;;;24.70;36.15;101779.19;5032432;28;20036;-72
2023/06/16 04:14:42;;;;;;;9.05;3.60;;;;;;;24.71;36.65;101789.72;5032662;28;20083;-68
2023/06/16 04:17:07;;;;;;;7.53;3.70;;;;;;;24.68;36.29;101782.00;5032566;28;20048;-67
2023/06/16 04:19:32;;;;;;;4.88;3.35;;;;;;;24.72;36.57;101795.88;5032813;28;20337;-68
2023/06/16 04:21:58;;;;;;;6.07;3.35;;;;;;;24.69;36.70;101785.50;5032696;28;20061;-69
2023/06/16 04:24:24;;;;;;;7.72;3.65;;;;;;;24.68;36.26;101784.69;5031162;28;20116;-68
2023/06/16 04:26:52;;;;;;;5.32;3.28;;;;;;;24.70;36.62;101790.69;5032533;28;20037;-69
2023/06/16 04:29:20;;;;;;;6.90;3.67;;;;;;;24.70;36.70;101797.84;5032667;28;20030;-69
2023/06/16 04:31:48;;;;;;;5.68;3.42;;;;;;;24.68;36.63;101791.84;5032632;28;20119;-68
2023/06/16 04:34:13;;;;;;;4.90;3.25;;;;;;;24.68;36.44;101789.19;5032878;28;20033;-68
2023/06/16 04:36:44;;;;;;;6.25;3.33;;;;;;;24.69;36.31;101789.03;5032620;28;20049;-68
2023/06/16 04:39:10;;;;;;;7.35;3.80;;;;;;;24.67;36.45;101790.16;5031822;28;20039;-70
2023/06/16 04:41:35;;;;;;;5.50;3.30;;;;;;;24.69;36.75;101793.50;5032531;28;20037;-69
2023/06/16 04:44:03;;;;;;;6.32;3.60;;;;;;;24.67;36.59;101784.81;5032200;28;20047;-69
2023/06/16 04:46:28;;;;;;;4.88;3.20;;;;;;;24.69;36.45;101796.16;5031662;28;20465;-70
2023/06/16 04:48:53;;;;;;;5.32;3.50;;;;;;;24.69;36.66;101802.34;5032355;28;20048;-68
2023/06/16 04:51:19;;;;;;;7.60;3.90;;;;;;;24.69;36.70;101802.34;5032176;28;20388;-69
2023/06/16 04:53:44;;;;;;;5.95;3.35;;;;;;;24.66;36.45;101796.44;5032107;28;20281;-68
2023/06/16 04:56:10;;;;;;;7.72;3.40;;;;;;;24.68;36.69;101790.00;5031380;28;20040;-69
2023/06/16 04:58:35;;;;;;;5.88;3.15;;;;;;;24.69;36.33;101793.50;5031857;28;20040;-68
2023/06/16 05:01:00;;;;;;;5.20;3.50;;;;;;;24.67;36.22;101798.97;5032148;28;20033;-69
2023/06/16 05:03:26;;;;;;;5.88;3.45;;;;;;;24.67;35.98;101801.63;5032592;28;20695;-70
2023/06/16 05:05:51;;;;;;;4.85;3.50;;;;;;;24.67;36.35;101803.47;5031461;28;20545;-70
2023/06/16 05:08:16;;;;;;;5.23;3.17;;;;;;;24.67;36.48;101806.97;5032030;28;20029;-67
2023/06/16 05:10:42;;;;;;;6.90;3.35;;;;;;;24.67;36.48;101803.47;5031705;28;20828;-69
2023/06/16 05:13:07;;;;;;;5.68;3.53;;;;;;;24.70;35.99;101805.84;5031665;28;20796;-69
2023/06/16 05:15:33;;;;;;;6.32;3.65;;;;;;;24.68;35.94;101810.50;5031537;28;20152;-69
2023/06/16 05:17:58;;;;;;;6.05;3.58;;;;;;;24.70;35.89;101808.50;5031695;28;20059;-68
2023/06/16 05:20:24;;;;;;;6.97;3.65;;;;;;;24.70;36.27;101812.00;5031637;28;20447;-67
2023/06/16 05:22:49;;;;;;;6.05;3.42;;;;;;;24.71;36.01;101816.38;5031483;28;20037;-65
2023/06/16 05:25:14;;;;;;;6.55;3.33;;;;;;;24.68;36.13;101806.00;5031237;28;20029;-68
2023/06/16 05:27:40;;;;;;;6.68;3.53;;;;;;;24.70;36.16;101813.84;5031462;28;20047;-68
2023/06/16 05:30:06;;;;;;;5.78;3.70;;;;;;;24.72;36.07;101809.19;5031480;28;20091;-70
2023/06/16 05:32:31;;;;;;;6.55;3.50;;;;;;;24.73;36.06;101813.56;5031543;28;20048;-69
2023/06/16 05:34:57;;;;;;;6.30;3.45;;;;;;;24.71;36.05;101808.38;5031214;28;20037;-68
2023/06/16 05:37:22;;;;;;;6.75;3.65;;;;;;;24.73;35.96;101818.88;5031353;28;20033;-67
2023/06/16 05:39:48;;;;;;;6.07;3.58;;;;;;;24.73;36.02;101818.88;5031260;28;20025;-68
2023/06/16 05:42:15;;;;;;;6.13;3.20;;;;;;;24.71;35.98;101818.19;5031086;28;20031;-67
2023/06/16 05:44:44;;;;;;;6.80;3.53;;;;;;;24.69;36.42;101812.16;5030785;28;20041;-67
2023/06/16 05:47:10;;;;;;;6.47;3.63;;;;;;;24.74;36.19;101820.59;5031223;28;20048;-68
2023/06/16 05:49:36;;;;;;;9.13;6.40;;;;;;;24.67;33.58;101822.13;5029227;28;20967;-70
2023/06/16 05:52:05;;;;;;;12.48;6.72;;;;;;;24.47;33.42;101814.16;5029915;28;20354;-68
2023/06/16 05:54:35;;;;;;;9.20;6.97;;;;;;;24.29;33.32;101819.34;5030171;28;20165;-68
2023/06/16 05:57:01;;;;;;;10.95;6.80;;;;;;;24.09;33.67;101822.03;5030311;28;20037;-70
2023/06/16 05:59:26;;;;;;;10.98;6.80;;;;;;;23.96;34.09;101823.28;5029492;28;20040;-68
2023/06/16 06:01:52;;;;;;;11.77;7.47;;;;;;;23.83;33.97;101820.88;5028530;28;20033;-68
2023/06/16 06:04:27;;;;;;;10.32;6.53;;;;;;;23.71;34.48;101823.69;5030981;28;20178;-69
2023/06/16 06:06:52;;;;;;;10.20;7.10;;;;;;;23.63;34.70;101822.69;5029600;28;20033;-68
2023/06/16 06:09:17;;;;;;;12.27;7.30;;;;;;;23.51;34.62;101825.47;5030653;28;20465;-68
2023/06/16 06:11:42;;;;;;;12.00;7.93;;;;;;;23.46;34.76;101829.50;5030678;28;20334;-69
2023/06/16 06:14:08;;;;;;;12.03;7.57;;;;;;;23.36;35.14;101824.16;5031270;28;20274;-68
2023/06/16 06:16:33;;;;;;;9.60;7.38;;;;;;;23.33;35.36;101830.59;5030291;28;20627;-70
2023/06/16 06:18:59;;;;;;;11.70;7.20;;;;;;;23.26;35.52;101826.81;5031156;28;20033;-69
2023/06/16 06:21:24;;;;;;;10.93;7.78;;;;;;;23.23;35.56;101832.41;5029416;28;20030;-67
2023/06/16 06:23:49;;;;;;;12.40;7.43;;;;;;;23.18;35.94;101832.78;5029923;28;20041;-67
2023/06/16 06:26:15;;;;;;;14.10;7.78;;;;;;;23.16;35.65;101833.88;5028389;28;20033;-68
2023/06/16 06:28:40;;;;;;;11.65;7.82;;;;;;;23.15;36.15;101835.72;5029987;28;20026;-68
2023/06/16 06:31:05;;;;;;;13.25;7.45;;;;;;;23.12;36.35;101833.31;5029684;28;20139;-69
2023/06/16 06:33:31;;;;;;;12.17;8.17;;;;;;;23.07;36.53;101832.88;5030203;28;20448;-68
2023/06/16 06:35:56;;;;;;;11.80;7.10;;;;;;;23.06;36.28;101835.66;5029405;28;20270;-68
2023/06/16 06:38:22;;;;;;;12.68;7.05;;;;;;;23.10;36.20;101842.44;5031305;28;20507;-67
2023/06/16 06:40:47;;;;;;;9.02;6.28;;;;;;;23.12;35.79;101848.44;5030704;28;20052;-67
2023/06/16 06:43:13;;;;;;;10.10;7.25;;;;;;;23.15;35.89;101848.19;5030492;28;20083;-66
2023/06/16 06:45:38;;;;;;;13.93;7.60;;;;;;;23.17;35.76;101844.41;5030296;28;20078;-66
2023/06/16 06:48:03;;;;;;;9.82;6.05;;;;;;;23.20;35.82;101847.78;5031005;28;20048;-72
2023/06/16 06:50:29;;;;;;;7.72;5.40;;;;;;;23.24;36.26;101843.84;5028992;28;20082;-68
2023/06/16 06:52:54;;;;;;;12.80;4.70;;;;;;;23.34;36.33;101839.44;5029833;28;20037;-69
2023/06/16 06:55:20;;;;;;;11.52;4.45;;;;;;;23.45;36.50;101841.13;5029935;28;20357;-68
2023/06/16 06:57:45;;;;;;;11.85;4.80;;;;;;;23.57;36.68;101850.69;5029921;28;20703;-67
2023/06/16 07:00:11;;;;;;;16.73;4.75;;;;;;;23.62;36.36;101844.94;5030617;28;20033;-68
2023/06/16 07:02:36;;;;;;;23.05;6.03;;;;;;;23.67;36.50;101848.91;5030348;28;20121;-67
2023/06/16 07:05:02;;;;;;;16.02;4.53;;;;;;;23.73;35.98;101848.34;5030875;28;20028;-68
2023/06/16 07:07:28;;;;;;;12.82;4.50;;;;;;;23.82;35.99;101857.31;5030098;28;20029;-69
2023/06/16 07:09:53;;;;;;;19.35;4.80;;;;;;;23.85;35.62;101851.75;5034015;28;20033;-68
2023/06/16 07:12:18;;;;;;;12.95;4.50;;;;;;;23.90;35.64;101859.31;5033843;28;20032;-68
2023/06/16 07:14:47;;;;;;;16.08;5.45;;;;;;;23.96;35.79;101853.44;5034006;28;20037;-67
2023/06/16 07:17:12;;;;;;;13.13;4.05;;;;;;;24.00;35.82;101854.00;5034125;28;20149;-67
2023/06/16 07:19:37;;;;;;;13.00;5.47;;;;;;;24.07;35.45;101853.31;5033983;28;20120;-67
2023/06/16 07:22:05;;;;;;;10.90;4.75;;;;;;;24.07;35.26;101853.31;5033848;28;20040;-67
2023/06/16 07:24:30;;;;;;;10.52;4.35;;;;;;;24.14;35.29;101858.91;5034162;28;20484;-68
2023/06/16 07:26:55;;;;;;;9.43;3.85;;;;;;;24.17;35.47;101855.97;5034030;28;20459;-67
2023/06/16 07:29:21;;;;;;;10.57;4.37;;;;;;;24.20;35.29;101854.84;5033346;28;20449;-68
2023/06/16 07:31:46;;;;;;;11.80;4.00;;;;;;;24.23;34.94;101851.91;5033697;28;20274;-67
2023/06/16 07:34:12;;;;;;;10.20;3.90;;;;;;;24.25;35.50;101849.94;5033700;28;20056;-68
2023/06/16 07:36:38;;;;;;;13.43;4.57;;;;;;;24.29;35.40;101861.97;5033690;28;20032;-68
2023/06/16 07:39:03;;;;;;;13.25;4.47;;;;;;;24.29;35.62;101851.31;5033322;28;20290;-66
2023/06/16 07:41:28;;;;;;;11.10;4.28;;;;;;;24.31;35.40;101854.72;5033537;28;20746;-68
2023/06/16 07:43:54;;;;;;;12.13;4.20;;;;;;;24.35;35.69;101857.91;5033388;28;20091;-68
2023/06/16 07:46:19;;;;;;;9.93;4.30;;;;;;;24.37;35.18;101862.13;5033628;28;20041;-67
2023/06/16 07:48:44;;;;;;;9.48;3.72;;;;;;;24.40;35.25;101863.66;5033663;28;20061;-69
2023/06/16 07:51:10;;;;;;;11.30;4.13;;;;;;;24.40;35.48;101858.31;5033056;28;20033;-68
2023/06/16 07:53:36;;;;;;;8.10;3.55;;;;;;;24.42;35.12;101862.53;5033319;28;20033;-67
2023/06/16 07:56:02;;;;;;;7.25;3.70;;;;;;;24.42;35.13;101857.22;5033083;28;20039;-67
2023/06/16 07:58:28;;;;;;;8.45;4.43;;;;;;;24.46;35.09;101852.44;5033600;28;20045;-69
2023/06/16 08:00:53;;;;;;;7.65;4.07;;;;;;;24.47;35.29;101855.94;5032952;28;20136;-67
2023/06/16 08:03:19;;;;;;;10.82;4.13;;;;;;;24.48;35.09;101854.97;5034041;28;20109;-67
2023/06/16 08:05:44;;;;;;;9.65;3.88;;;;;;;24.46;35.47;101849.78;5033107;28;20087;-67
2023/06/16 08:08:10;;;;;;;7.60;3.70;;;;;;;24.49;35.22;101846.00;5033329;28;20127;-67
2023/06/16 08:10:35;;;;;;;7.45;3.50;;;;;;;24.50;35.26;101850.31;5032406;28;20029;-67
2023/06/16 08:13:00;;;;;;;10.48;4.38;;;;;;;24.53;35.15;101850.91;5031739;28;20033;-67
2023/06/16 08:15:26;;;;;;;9.45;3.65;;;;;;;24.52;35.08;101848.38;5031216;28;20040;-68
2023/06/16 08:17:51;;;;;;;8.82;3.72;;;;;;;24.54;35.05;101855.22;5032848;28;20040;-67
2023/06/16 08:20:17;;;;;;;9.20;3.83;;;;;;;24.52;35.59;101846.53;5031561;28;20033;-67
2023/06/16 08:22:42;;;;;;;8.27;3.72;;;;;;;24.55;35.59;101845.44;5032850;28;20497;-68
2023/06/16 08:25:08;;;;;;;7.78;3.63;;;;;;;24.56;35.56;101844.41;5031072;28;20025;-66
2023/06/16 08:27:33;;;;;;;8.85;3.72;;;;;;;24.57;35.62;101848.81;5032980;28;20062;-67
2023/06/16 08:29:58;;;;;;;12.90;4.20;;;;;;;24.57;35.37;101846.16;5032853;28;20080;-67
2023/06/16 08:32:24;;;;;;;8.57;4.30;;;;;;;24.57;35.79;101840.81;5032667;28;20401;-67
2023/06/16 08:34:49;;;;;;;6.85;3.70;;;;;;;24.58;35.28;101839.84;5032593;28;20301;-67
2023/06/16 08:37:15;;;;;;;7.88;3.58;;;;;;;24.59;35.72;101850.34;5032414;28;20401;-67
2023/06/16 08:39:43;;;;;;;6.47;3.40;;;;;;;24.59;35.84;101845.03;5032746;28;20239;-68
2023/06/16 08:42:10;;;;;;;7.63;3.63;;;;;;;24.59;35.62;101837.03;5031117;28;20118;-67
2023/06/16 08:44:38;;;;;;;7.68;3.70;;;;;;;24.62;35.65;101836.75;5032035;28;20033;-67
2023/06/16 08:47:04;;;;;;;6.78;3.22;;;;;;;24.63;35.60;101840.25;5032611;28;20021;-67
2023/06/16 08:49:30;;;;;;;9.50;4.00;;;;;;;24.61;35.43;101837.72;5032257;28;20029;-68
2023/06/16 08:51:56;;;;;;;6.97;3.42;;;;;;;24.64;35.89;101841.91;5032210;28;20118;-69
2023/06/16 08:54:24;;;;;;;8.32;3.55;;;;;;;24.62;35.68;101843.88;5032030;28;20047;-68
2023/06/16 08:56:51;;;;;;;7.38;3.70;;;;;;;24.65;35.61;101840.94;5031653;28;20033;-67
2023/06/16 08:59:18;;;;;;;7.68;3.50;;;;;;;24.64;35.45;101833.91;5031658;28;20093;-69
2023/06/16 09:01:44;;;;;;;6.63;3.65;;;;;;;24.65;35.08;101832.09;5032020;28;20037;-69
2023/06/16 09:04:13;;;;;;;8.40;3.65;;;;;;;24.63;35.08;101832.25;5032275;28;20041;-68
2023/06/16 09:06:47;;;;;;;6.40;3.10;;;;;;;24.66;35.45;101836.44;5031431;28;20364;-68
2023/06/16 09:09:13;;;;;;;6.32;3.42;;;;;;;24.72;35.49;101834.06;5031317;28;20501;-69
2023/06/16 09:11:39;;;;;;;10.60;3.50;;;;;;;24.72;36.27;101834.06;5031782;28;20040;-67
2023/06/16 09:14:14;;;;;;;6.85;3.53;;;;;;;24.72;35.26;101834.06;5032162;28;20034;-67
2023/06/16 09:16:40;;;;;;;8.43;3.55;;;;;;;24.71;35.98;101835.03;5030725;28;20072;-68
2023/06/16 09:19:08;;;;;;;9.20;3.47;;;;;;;24.73;35.82;101832.22;5032197;28;20061;-68
2023/06/16 09:21:33;;;;;;;9.43;3.47;;;;;;;24.76;35.98;101845.25;5032449;28;20033;-69
2023/06/16 09:24:00;;;;;;;9.40;3.53;;;;;;;24.75;36.04;101833.75;5032387;28;20087;-70
2023/06/16 09:26:30;;;;;;;6.18;3.17;;;;;;;24.77;37.10;101838.94;5030979;28;20039;-68
2023/06/16 09:28:56;;;;;;;12.95;3.85;;;;;;;24.79;37.08;101839.63;5031993;28;20033;-68
2023/06/16 09:31:24;;;;;;;8.90;4.00;;;;;;;24.76;37.50;101827.44;5031068;28;20048;-68
2023/06/16 09:33:49;;;;;;;9.23;3.85;;;;;;;24.79;37.13;101839.63;5029080;28;20068;-70
2023/06/16 09:36:27;;;;;;;7.18;3.75;;;;;;;24.88;36.10;101836.09;5030252;28;20121;-69
2023/06/16 09:38:52;;;;;;;5.60;3.25;;;;;;;24.93;35.83;101836.50;5030636;28;20044;-70
2023/06/16 09:41:18;;;;;;;8.70;3.53;;;;;;;24.95;35.84;101829.19;5030201;28;20642;-69
2023/06/16 09:43:44;;;;;;;7.05;3.30;;;;;;;24.93;36.06;101823.16;5030874;28;20055;-69
2023/06/16 09:46:12;;;;;;;6.60;3.55;;;;;;;24.96;36.11;101819.38;5029729;28;20040;-70
2023/06/16 09:48:50;;;;;;;7.25;2.95;;;;;;;24.97;35.77;101819.19;5030460;28;20079;-68
2023/06/16 09:51:22;;;;;;;6.32;3.47;;;;;;;24.98;35.99;101823.56;5030999;28;20048;-68
2023/06/16 09:53:48;;;;;;;7.65;3.30;;;;;;;25.05;35.70;101825.66;5030307;28;20040;-68
2023/06/16 09:56:15;;;;;;;8.88;3.38;;;;;;;25.06;35.61;101822.00;5030452;28;20033;-68
2023/06/16 09:58:42;;;;;;;8.70;3.45;;;;;;;25.06;35.53;101825.50;5030869;28;20116;-67
2023/06/16 10:01:09;;;;;;;19.17;3.78;;;;;;;25.06;35.58;101816.66;5029464;28;20064;-67
2023/06/16 10:03:37;;;;;;;6.25;3.10;;;;;;;25.02;35.36;101816.09;5030851;28;20036;-67
2023/06/16 10:06:05;;;;;;;5.95;2.83;;;;;;;25.06;35.67;101812.16;5029716;28;20071;-68
2023/06/16 10:08:31;;;;;;;6.45;3.30;;;;;;;25.06;35.61;101814.00;5030894;28;20083;-67
2023/06/16 10:10:56;;;;;;;7.68;3.63;;;;;;;25.08;35.61;101817.34;5030505;28;20124;-69
2023/06/16 10:13:24;;;;;;;10.82;3.40;;;;;;;25.08;35.29;101812.84;5029924;28;20140;-70
2023/06/16 10:15:52;;;;;;;6.30;3.28;;;;;;;25.08;35.64;101804.84;5029769;28;20042;-70
2023/06/16 10:18:18;;;;;;;7.78;3.25;;;;;;;25.09;35.35;101809.22;5030416;28;20060;-68
2023/06/16 10:20:45;;;;;;;6.25;3.15;;;;;;;25.08;36.09;101804.84;5030421;28;20033;-71
2023/06/16 10:23:11;;;;;;;7.32;3.15;;;;;;;25.08;35.95;101804.84;5030565;28;20033;-73
2023/06/16 10:25:39;;;;;;;5.47;2.83;;;;;;;25.10;35.96;101812.69;5029908;28;20028;-71
2023/06/16 10:28:07;;;;;;;8.40;2.85;;;;;;;25.12;36.16;101811.59;5030311;28;20030;-69
2023/06/16 10:30:36;;;;;;;8.63;3.50;;;;;;;25.15;35.77;101799.75;5029271;28;20032;-68
2023/06/16 10:33:15;;;;;;;9.13;3.08;;;;;;;25.16;36.04;101790.78;5029357;28;20039;-69
2023/06/16 10:35:56;;;;;;;8.82;3.30;;;;;;;25.19;35.60;101798.47;5030403;28;20108;-69
2023/06/16 10:38:34;;;;;;;5.38;2.90;;;;;;;25.19;36.13;101795.00;5031030;28;20087;-69
2023/06/16 10:41:07;;;;;;;5.78;2.88;;;;;;;25.18;35.86;101786.13;5030196;28;20444;-67
2023/06/16 10:43:33;;;;;;;11.45;3.33;;;;;;;25.19;35.89;101786.97;5029721;28;20029;-66
2023/06/16 10:46:15;;;;;;;7.95;3.15;;;;;;;25.14;35.80;101788.25;5034704;28;20537;-67
2023/06/16 10:48:56;;;;;;;12.52;3.78;;;;;;;25.14;35.92;101790.91;5034537;28;20048;-66
2023/06/16 10:51:44;;;;;;;10.73;3.30;;;;;;;25.19;36.18;101789.66;5034803;28;20108;-68
2023/06/16 10:54:10;;;;;;;9.07;3.90;;;;;;;25.16;35.88;101780.94;5034129;28;20037;-70
2023/06/16 10:57:03;;;;;;;9.93;3.60;;;;;;;25.16;35.86;101782.78;5033244;28;20028;-70
2023/06/16 10:59:29;;;;;;;7.90;3.28;;;;;;;25.21;35.79;101779.66;5033510;28;20188;-69
2023/06/16 11:01:58;;;;;;;9.27;3.17;;;;;;;25.22;35.97;101782.19;5033319;28;20064;-68
2023/06/16 11:04:24;;;;;;;7.40;3.40;;;;;;;25.22;35.73;101784.03;5033418;28;20165;-69
2023/06/16 11:07:07;;;;;;;9.10;3.20;;;;;;;25.23;35.84;101791.88;5032651;28;20029;-72
2023/06/16 11:09:32;;;;;;;7.22;3.20;;;;;;;25.23;35.64;101775.88;5033862;28;20044;-68
2023/06/16 11:11:59;;;;;;;8.32;3.30;;;;;;;25.27;36.01;101785.22;5033170;28;20393;-68
2023/06/16 11:14:25;;;;;;;6.25;3.55;;;;;;;25.24;35.95;101766.03;5033259;28;20113;-70
2023/06/16 11:16:51;;;;;;;6.57;3.00;;;;;;;25.21;35.98;101769.81;5031920;28;20425;-70
2023/06/16 11:19:19;;;;;;;9.35;3.78;;;;;;;25.22;35.56;101763.50;5033215;28;21060;-70
2023/06/16 11:21:46;;;;;;;10.98;3.25;;;;;;;25.24;35.82;101768.69;5033637;28;20082;-70
2023/06/16 11:24:12;;;;;;;9.65;3.53;;;;;;;25.16;35.44;101772.09;5033449;28;20390;-72